createdAt,value
2022-10-12T00:01:41.524Z,102562.09
2022-10-12T00:04:44.339Z,102562.13
2022-10-12T00:07:47.108Z,102574.50
2022-10-12T00:10:50.245Z,102573.63
2022-10-12T00:13:53.875Z,102571.84
2022-10-12T00:16:58.182Z,102581.59
2022-10-12T00:20:01.001Z,102581.59
2022-10-12T00:23:04.030Z,102577.16
2022-10-12T00:26:08.716Z,102580.72
2022-10-12T00:29:11.501Z,102582.50
2022-10-12T00:32:16.374Z,102579.81
2022-10-12T00:35:19.196Z,102578.94
2022-10-12T00:38:22.281Z,102583.41
2022-10-12T00:41:27.095Z,102580.75
2022-10-12T00:44:39.328Z,102586.06
2022-10-12T00:47:49.717Z,102586.94
2022-10-12T00:50:52.839Z,102584.28
2022-10-12T00:54:01.091Z,102586.94
2022-10-12T00:57:06.449Z,102583.41
2022-10-12T01:00:11.891Z,102578.09
2022-10-12T01:03:19.310Z,102585.16
2022-10-12T01:06:22.363Z,102578.09
2022-10-12T01:09:25.217Z,102576.28
2022-10-12T01:12:28.744Z,102578.09
2022-10-12T01:15:36.423Z,102578.97
2022-10-12T01:18:48.950Z,102580.75
2022-10-12T01:21:59.129Z,102581.63
2022-10-12T01:25:15.160Z,102581.63
2022-10-12T01:28:25.381Z,102583.44
2022-10-12T01:31:36.676Z,102585.22
2022-10-12T01:34:47.079Z,102589.66
2022-10-12T01:37:59.277Z,102588.75
2022-10-12T01:41:08.016Z,102586.94
2022-10-12T01:44:10.817Z,102590.53
2022-10-12T01:47:15.065Z,102581.63
2022-10-12T01:50:18.783Z,102586.06
2022-10-12T01:53:34.417Z,102592.28
2022-10-12T01:56:48.148Z,102587.88
2022-10-12T01:59:59.407Z,102574.56
2022-10-12T02:03:14.217Z,102587.88
2022-10-12T02:06:20.378Z,102584.31
2022-10-12T02:09:27.694Z,102587.88
2022-10-12T02:12:33.244Z,102594.09
2022-10-12T02:15:38.575Z,102591.47
2022-10-12T02:18:46.303Z,102590.56
2022-10-12T02:21:51.316Z,102579.91
2022-10-12T02:24:57.997Z,102576.38
2022-10-12T02:28:06.898Z,102579.03
2022-10-12T02:31:16.105Z,102577.25
2022-10-12T02:34:26.156Z,102584.31
2022-10-12T02:37:36.100Z,102583.44
2022-10-12T02:40:43.369Z,102578.13
2022-10-12T02:43:51.818Z,102579.91
2022-10-12T02:46:56.084Z,102576.38
2022-10-12T02:50:01.799Z,102575.50
2022-10-12T02:53:05.565Z,102571.94
2022-10-12T02:56:11.917Z,102571.06
2022-10-12T02:59:15.424Z,102572.88
2022-10-12T03:02:18.212Z,102575.53
2022-10-12T03:05:23.421Z,102572.88
2022-10-12T03:08:26.248Z,102568.41
2022-10-12T03:11:29.202Z,102570.19
2022-10-12T03:14:33.942Z,102569.28
2022-10-12T03:17:36.997Z,102570.19
2022-10-12T03:20:41.375Z,102576.38
2022-10-12T03:23:44.161Z,102562.25
2022-10-12T03:26:46.981Z,102569.28
2022-10-12T03:29:49.759Z,102575.53
2022-10-12T03:32:52.606Z,102571.97
2022-10-12T03:35:56.752Z,102565.78
2022-10-12T03:38:59.684Z,102568.44
2022-10-12T03:42:02.884Z,102568.44
2022-10-12T03:45:06.330Z,102563.13
2022-10-12T03:48:09.106Z,102570.22
2022-10-12T03:51:13.346Z,102560.47
2022-10-12T03:54:16.342Z,102572.88
2022-10-12T03:57:19.114Z,102565.78
2022-10-12T04:00:22.192Z,102573.75
2022-10-12T04:03:25.032Z,102571.97
2022-10-12T04:06:29.280Z,102571.97
2022-10-12T04:09:32.084Z,102573.75
2022-10-12T04:12:34.902Z,102583.50
2022-10-12T04:15:37.982Z,102587.06
2022-10-12T04:18:40.827Z,102580.84
2022-10-12T04:21:44.969Z,102587.97
2022-10-12T04:24:47.821Z,102587.97
2022-10-12T04:27:51.139Z,102588.88
2022-10-12T04:30:53.922Z,102589.75
2022-10-12T04:33:57.155Z,102589.75
2022-10-12T04:37:01.325Z,102590.63
2022-10-12T04:40:04.810Z,102590.63
2022-10-12T04:43:07.581Z,102590.63
2022-10-12T04:46:10.367Z,102595.97
2022-10-12T04:49:13.360Z,102592.38
2022-10-12T04:52:17.528Z,102592.38
2022-10-12T04:55:20.293Z,102583.53
2022-10-12T04:58:23.096Z,102592.41
2022-10-12T05:01:26.008Z,102587.97
2022-10-12T05:04:28.849Z,102585.31
2022-10-12T05:07:33.040Z,102597.72
2022-10-12T05:10:35.913Z,102595.97
2022-10-12T05:13:38.698Z,102604.81
2022-10-12T05:16:41.564Z,102593.28
2022-10-12T05:19:44.356Z,102591.53
2022-10-12T05:22:48.648Z,102600.38
2022-10-12T05:25:51.560Z,102595.97
2022-10-12T05:28:54.842Z,102597.69
2022-10-12T05:31:57.800Z,102602.13
2022-10-12T05:35:00.618Z,102600.34
2022-10-12T05:38:05.058Z,102602.13
2022-10-12T05:41:08.075Z,102596.84
2022-10-12T05:44:10.918Z,102591.50
2022-10-12T05:47:13.711Z,102595.97
2022-10-12T05:50:16.619Z,102599.50
2022-10-12T05:53:20.818Z,102594.19
2022-10-12T05:56:23.561Z,102602.16
2022-10-12T05:59:26.454Z,102610.13
2022-10-12T06:02:29.257Z,102607.47
2022-10-12T06:05:32.082Z,102606.59
2022-10-12T06:08:36.675Z,102611.91
2022-10-12T06:11:40.021Z,102613.66
2022-10-12T06:14:42.773Z,102618.97
2022-10-12T06:17:45.569Z,102619.84
2022-10-12T06:20:49.405Z,102625.19
2022-10-12T06:23:53.552Z,102631.38
2022-10-12T06:26:56.345Z,102624.28
2022-10-12T06:29:59.191Z,102618.97
2022-10-12T06:33:02.018Z,102623.41
2022-10-12T06:36:05.047Z,102626.94
2022-10-12T06:39:09.997Z,102629.59
2022-10-12T06:42:12.769Z,102629.59
2022-10-12T06:45:25.257Z,102627.88
2022-10-12T06:48:28.038Z,102621.66
2022-10-12T06:51:30.945Z,102626.06
2022-10-12T06:54:35.106Z,102632.25
2022-10-12T06:57:38.205Z,102636.69
2022-10-12T07:00:40.970Z,102634.03
2022-10-12T07:03:43.760Z,102628.72
2022-10-12T07:06:46.548Z,102626.06
2022-10-12T07:09:50.864Z,102626.06
2022-10-12T07:12:53.684Z,102629.59
2022-10-12T07:15:56.474Z,102634.94
2022-10-12T07:18:59.245Z,102627.88
2022-10-12T07:22:02.419Z,102634.94
2022-10-12T07:25:07.794Z,102634.94
2022-10-12T07:28:10.848Z,102633.19
2022-10-12T07:31:13.796Z,102633.19
2022-10-12T07:34:16.656Z,102634.03
2022-10-12T07:37:19.582Z,102635.81
2022-10-12T07:40:23.777Z,102630.50
2022-10-12T07:43:26.615Z,102636.69
2022-10-12T07:46:29.378Z,102631.38
2022-10-12T07:49:32.199Z,102631.38
2022-10-12T07:52:35.041Z,102628.72
2022-10-12T07:55:39.211Z,102632.22
2022-10-12T07:58:42.134Z,102631.38
2022-10-12T08:01:45.003Z,102624.28
2022-10-12T08:04:47.829Z,102628.72
2022-10-12T08:07:51.203Z,102626.94
2022-10-12T08:10:57.501Z,102631.38
2022-10-12T08:14:00.301Z,102627.84
2022-10-12T08:17:03.117Z,102629.59
2022-10-12T08:20:07.514Z,102633.13
2022-10-12T08:23:10.313Z,102631.34
2022-10-12T08:26:15.667Z,102627.81
2022-10-12T08:29:18.641Z,102627.81
2022-10-12T08:32:21.486Z,102632.25
2022-10-12T08:35:24.287Z,102625.09
2022-10-12T08:38:27.077Z,102618.06
2022-10-12T08:41:44.317Z,102618.94
2022-10-12T08:44:58.039Z,102618.94
2022-10-12T08:48:08.521Z,102622.47
2022-10-12T08:51:16.820Z,102614.47
2022-10-12T08:54:23.111Z,102618.06
2022-10-12T08:57:27.442Z,102613.63
2022-10-12T09:00:34.812Z,102619.78
2022-10-12T09:03:45.565Z,102618.03
2022-10-12T09:06:51.909Z,102610.94
2022-10-12T09:10:09.807Z,102610.88
2022-10-12T09:13:29.517Z,102603.84
2022-10-12T09:16:35.840Z,102602.91
2022-10-12T09:19:42.101Z,102600.25
2022-10-12T09:22:50.334Z,102602.91
2022-10-12T09:25:55.947Z,102602.91
2022-10-12T09:29:00.561Z,102598.47
2022-10-12T09:32:29.383Z,102602.91
2022-10-12T09:35:32.312Z,102601.13
2022-10-12T09:38:35.568Z,102602.91
2022-10-12T09:41:42.492Z,102600.25
2022-10-12T09:44:49.477Z,102594.91
2022-10-12T09:48:18.324Z,102595.78
2022-10-12T09:51:21.233Z,102591.38
2022-10-12T09:54:28.506Z,102598.44
2022-10-12T09:57:33.804Z,102586.91
2022-10-12T10:00:37.993Z,102582.50
2022-10-12T10:03:40.893Z,102588.66
2022-10-12T10:06:45.914Z,102584.25
2022-10-12T10:09:49.343Z,102578.94
2022-10-12T10:12:54.171Z,102576.28
2022-10-12T10:16:06.835Z,102577.16
2022-10-12T10:19:18.855Z,102577.16
2022-10-12T10:22:22.936Z,102578.06
2022-10-12T10:25:26.365Z,102581.59
2022-10-12T10:28:31.755Z,102583.34
2022-10-12T10:31:36.053Z,102578.03
2022-10-12T10:34:39.146Z,102572.69
2022-10-12T10:37:46.279Z,102579.78
2022-10-12T10:40:52.535Z,102576.22
2022-10-12T10:43:55.995Z,102569.16
2022-10-12T10:47:03.321Z,102569.16
2022-10-12T10:50:26.929Z,102566.47
2022-10-12T10:53:32.913Z,102567.38
2022-10-12T10:56:35.801Z,102571.81
2022-10-12T10:59:45.837Z,102563.84
2022-10-12T11:02:53.274Z,102557.63
2022-10-12T11:06:04.646Z,102555.88
2022-10-12T11:09:17.194Z,102550.56
2022-10-12T11:12:30.256Z,102540.78
2022-10-12T11:15:39.692Z,102540.78
2022-10-12T11:18:47.313Z,102539.91
2022-10-12T11:21:54.479Z,102542.56
2022-10-12T11:25:07.059Z,102525.72
2022-10-12T11:28:16.391Z,102531.03
2022-10-12T11:31:25.638Z,102533.69
2022-10-12T11:34:37.203Z,102529.25
2022-10-12T11:37:43.823Z,102526.59
2022-10-12T11:41:31.097Z,102524.81
2022-10-12T11:44:18.971Z,102523.97
2022-10-12T11:47:32.832Z,102525.72
2022-10-12T11:50:39.777Z,102523.06
2022-10-12T11:53:50.393Z,102513.34
2022-10-12T11:56:58.012Z,102522.16
2022-10-12T12:00:05.728Z,102514.19
2022-10-12T12:03:23.173Z,102507.97
2022-10-12T12:06:51.258Z,102515.06
2022-10-12T12:09:54.614Z,102499.09
2022-10-12T12:13:18.093Z,102501.72
2022-10-12T12:16:27.825Z,102504.44
2022-10-12T12:19:40.615Z,102500.00
2022-10-12T12:22:52.189Z,102484.94
2022-10-12T12:26:11.814Z,102484.06
2022-10-12T12:29:29.784Z,102485.81
2022-10-12T12:32:45.799Z,102491.13
2022-10-12T12:35:55.501Z,102487.59
2022-10-12T12:39:00.136Z,102490.25
2022-10-12T12:42:05.141Z,102477.00
2022-10-12T12:45:41.265Z,102476.94
2022-10-12T12:49:07.338Z,102479.59
2022-10-12T12:52:17.748Z,102471.63
2022-10-12T12:55:52.722Z,102478.72
2022-10-12T12:59:19.135Z,102478.72
2022-10-12T13:02:48.063Z,102460.97
2022-10-12T13:06:34.895Z,102471.63
2022-10-12T13:09:59.485Z,102460.09
2022-10-12T13:13:27.641Z,102453.91
2022-10-12T13:20:19.437Z,102453.00
2022-10-12T13:23:25.420Z,102456.56
2022-10-12T13:26:32.142Z,102443.28
2022-10-12T13:29:42.385Z,102447.69
2022-10-12T13:32:50.961Z,102442.38
2022-10-12T13:35:57.482Z,102446.81
2022-10-12T13:39:07.920Z,102437.94
2022-10-12T13:42:16.052Z,102437.91
2022-10-12T13:45:21.270Z,102431.72
2022-10-12T13:48:46.320Z,102436.16
2022-10-12T13:51:50.457Z,102427.28
2022-10-12T13:54:53.420Z,102432.56
2022-10-12T13:57:56.291Z,102429.06
2022-10-12T14:01:00.819Z,102430.84
2022-10-12T14:04:05.638Z,102429.06
2022-10-12T14:07:16.295Z,102429.06
2022-10-12T14:10:22.785Z,102426.41
2022-10-12T14:13:28.745Z,102422.91
2022-10-12T14:16:33.010Z,102418.44
2022-10-12T14:19:45.760Z,102420.19
2022-10-12T14:22:49.897Z,102411.31
2022-10-12T14:25:54.298Z,102413.09
2022-10-12T14:28:58.218Z,102411.31
2022-10-12T14:32:03.813Z,102410.41
2022-10-12T14:35:20.903Z,102404.25
2022-10-12T14:38:38.819Z,102400.66
2022-10-12T14:41:50.105Z,102403.31
2022-10-12T14:44:53.258Z,102392.72
2022-10-12T14:47:59.534Z,102398.03
2022-10-12T14:51:02.415Z,102391.84
2022-10-12T14:54:06.167Z,102395.38
2022-10-12T14:57:13.970Z,102388.31
2022-10-12T15:00:18.885Z,102386.50
2022-10-12T15:03:23.165Z,102380.31
2022-10-12T15:06:25.995Z,102377.66
2022-10-12T15:09:28.936Z,102380.31
2022-10-12T15:12:32.001Z,102374.06
2022-10-12T15:15:42.284Z,102375.84
2022-10-12T15:18:46.681Z,102370.56
2022-10-12T15:21:49.556Z,102377.59
2022-10-12T15:24:53.660Z,102369.66
2022-10-12T15:27:56.479Z,102369.66
2022-10-12T15:31:16.977Z,102360.81
2022-10-12T15:34:21.995Z,102366.13
2022-10-12T15:37:30.173Z,102357.25
2022-10-12T15:40:34.423Z,102359.03
2022-10-12T15:43:39.699Z,102351.94
2022-10-12T15:46:45.497Z,102354.59
2022-10-12T15:49:49.645Z,102355.47
2022-10-12T15:52:54.206Z,102357.25
2022-10-12T15:55:57.272Z,102360.75
2022-10-12T15:59:00.170Z,102360.75
2022-10-12T16:02:03.013Z,102356.38
2022-10-12T16:05:15.973Z,102354.59
2022-10-12T16:08:18.751Z,102356.38
2022-10-12T16:11:21.963Z,102351.06
2022-10-12T16:14:24.768Z,102356.38
2022-10-12T16:17:27.524Z,102357.25
2022-10-12T16:20:34.289Z,102356.38
2022-10-12T16:23:38.391Z,102362.59
2022-10-12T16:26:44.856Z,102361.72
2022-10-12T16:29:47.996Z,102355.53
2022-10-12T16:32:50.919Z,102354.59
2022-10-12T16:35:55.398Z,102351.94
2022-10-12T16:38:58.277Z,102350.16
2022-10-12T16:42:01.107Z,102348.38
2022-10-12T16:45:04.805Z,102345.72
2022-10-12T16:48:07.788Z,102345.72
2022-10-12T16:51:13.859Z,102345.72
2022-10-12T16:54:16.838Z,102340.44
2022-10-12T16:57:19.674Z,102341.31
2022-10-12T17:00:22.623Z,102343.13
2022-10-12T17:03:25.484Z,102339.56
2022-10-12T17:06:29.925Z,102339.56
2022-10-12T17:09:32.981Z,102341.34
2022-10-12T17:12:36.076Z,102343.13
2022-10-12T17:15:41.520Z,102343.13
2022-10-12T17:18:44.363Z,102344.88
2022-10-12T17:21:49.276Z,102349.28
2022-10-12T17:24:52.043Z,102343.97
2022-10-12T17:27:54.838Z,102343.97
2022-10-12T17:30:57.564Z,102346.63
2022-10-12T17:34:02.736Z,102344.84
2022-10-12T17:37:08.418Z,102337.78
2022-10-12T17:40:11.729Z,102344.88
2022-10-12T17:43:14.576Z,102344.88
2022-10-12T17:46:22.578Z,102350.19
2022-10-12T17:49:25.813Z,102345.78
2022-10-12T17:52:29.937Z,102345.78
2022-10-12T17:55:48.113Z,102345.78
2022-10-12T17:58:55.362Z,102351.97
2022-10-12T18:01:58.196Z,102353.75
2022-10-12T18:05:00.997Z,102352.88
2022-10-12T18:08:05.686Z,102352.88
2022-10-12T18:11:08.943Z,102340.44
2022-10-12T18:14:13.099Z,102343.97
2022-10-12T18:17:15.891Z,102330.69
2022-10-12T18:20:19.433Z,102333.41
2022-10-12T18:23:23.580Z,102335.13
2022-10-12T18:26:27.850Z,102332.47
2022-10-12T18:29:30.645Z,102328.09
2022-10-12T18:32:33.482Z,102325.41
2022-10-12T18:35:36.253Z,102322.75
2022-10-12T18:38:40.690Z,102328.09
2022-10-12T18:41:43.591Z,102317.44
2022-10-12T18:44:46.511Z,102321.88
2022-10-12T18:47:49.419Z,102318.28
2022-10-12T18:50:53.337Z,102318.28
2022-10-12T18:53:58.696Z,102319.19
2022-10-12T18:57:02.486Z,102314.78
2022-10-12T19:00:06.213Z,102308.53
2022-10-12T19:03:12.486Z,102324.50
2022-10-12T19:06:17.551Z,102317.44
2022-10-12T19:09:21.875Z,102319.19
2022-10-12T19:12:24.688Z,102314.78
2022-10-12T19:15:28.533Z,102313.91
2022-10-12T19:18:31.383Z,102315.69
2022-10-12T19:21:34.828Z,102319.25
2022-10-12T19:24:39.014Z,102313.94
2022-10-12T19:27:41.992Z,102315.69
2022-10-12T19:30:44.859Z,102306.81
2022-10-12T19:33:48.464Z,102312.13
2022-10-12T19:36:51.706Z,102305.91
2022-10-12T19:39:55.919Z,102303.22
2022-10-12T19:42:58.749Z,102301.50
2022-10-12T19:46:03.702Z,102300.59
2022-10-12T19:49:06.636Z,102300.59
2022-10-12T19:52:09.452Z,102299.72
2022-10-12T19:55:13.600Z,102294.41
2022-10-12T19:58:16.436Z,102299.72
2022-10-12T20:01:20.997Z,102299.72
2022-10-12T20:04:24.166Z,102291.78
2022-10-12T20:07:26.983Z,102283.81
2022-10-12T20:10:31.191Z,102283.81
2022-10-12T20:13:34.681Z,102292.66
2022-10-12T20:16:37.826Z,102297.97
2022-10-12T20:19:40.663Z,102284.69
2022-10-12T20:22:43.421Z,102292.66
2022-10-12T20:25:50.023Z,102294.41
2022-10-12T20:28:54.720Z,102290.00
2022-10-12T20:31:57.532Z,102291.78
2022-10-12T20:35:01.637Z,102291.78
2022-10-12T20:38:05.235Z,102284.69
2022-10-12T20:41:11.289Z,102274.94
2022-10-12T20:44:14.162Z,102274.94
2022-10-12T20:47:17.648Z,102274.06
2022-10-12T20:50:20.778Z,102274.94
2022-10-12T20:53:23.627Z,102279.38
2022-10-12T20:56:28.141Z,102278.53
2022-10-12T20:59:31.508Z,102278.53
2022-10-12T21:02:34.461Z,102274.06
2022-10-12T21:05:37.265Z,102268.75
2022-10-12T21:08:40.928Z,102260.75
2022-10-12T21:11:45.137Z,102253.66
2022-10-12T21:14:47.908Z,102251.00
2022-10-12T21:17:51.087Z,102259.00
2022-10-12T21:20:55.732Z,102251.94
2022-10-12T21:24:01.155Z,102246.63
2022-10-12T21:27:05.748Z,102248.38
2022-10-12T21:30:09.551Z,102246.63
2022-10-12T21:33:13.189Z,102242.19
2022-10-12T21:36:18.393Z,102236.00
2022-10-12T21:39:21.175Z,102244.84
2022-10-12T21:42:25.358Z,102247.50
2022-10-12T21:45:28.309Z,102245.72
2022-10-12T21:48:31.195Z,102249.28
2022-10-12T21:51:33.975Z,102251.94
2022-10-12T21:54:36.778Z,102249.28
2022-10-12T21:57:40.916Z,102247.47
2022-10-12T22:00:43.729Z,102244.81
2022-10-12T22:03:48.053Z,102247.50
2022-10-12T22:06:50.886Z,102248.38
2022-10-12T22:09:53.652Z,102244.84
2022-10-12T22:12:57.829Z,102250.16
2022-10-12T22:16:01.620Z,102251.09
2022-10-12T22:19:07.572Z,102246.66
2022-10-12T22:22:10.390Z,102241.34
2022-10-12T22:25:13.196Z,102235.16
2022-10-12T22:28:17.481Z,102236.03
2022-10-12T22:31:21.743Z,102237.78
2022-10-12T22:34:24.552Z,102230.72
2022-10-12T22:37:27.349Z,102231.59
2022-10-12T22:40:30.171Z,102227.16
2022-10-12T22:43:35.830Z,102230.72
2022-10-12T22:46:38.602Z,102219.19
2022-10-12T22:49:41.396Z,102221.00
2022-10-12T22:52:44.161Z,102224.50
2022-10-12T22:55:48.210Z,102213.03
2022-10-12T22:58:56.458Z,102213.91
2022-10-12T23:01:59.283Z,102214.81
2022-10-12T23:05:03.389Z,102209.50
2022-10-12T23:08:06.330Z,102205.97
2022-10-12T23:11:11.868Z,102201.50
2022-10-12T23:14:16.027Z,102202.41
2022-10-12T23:17:18.842Z,102205.06
2022-10-12T23:20:21.662Z,102190.88
2022-10-12T23:23:25.888Z,102200.63
2022-10-12T23:26:30.358Z,102200.63
2022-10-12T23:29:34.566Z,102198.84
2022-10-12T23:32:37.755Z,102201.50
2022-10-12T23:35:40.536Z,102198.84
2022-10-12T23:38:45.147Z,102192.69
2022-10-12T23:41:47.931Z,102186.47
2022-10-12T23:44:52.073Z,102184.72
2022-10-12T23:47:54.850Z,102171.44
2022-10-12T23:50:57.811Z,102179.41
2022-10-12T23:54:00.921Z,102182.06
2022-10-12T23:57:03.718Z,102186.47
